עמוד ראשי
METAR-TAF:

METAR-TAF

שדות תעופה :

Kosrae, מיקרונזיה

קו רוחב: 05-21N, קו אורך: 162-57E, גובה: 3מטר

תצפית מזג אוויר נוכחית

הדו"ח נערך לפני 50דקות, בשעה 23:50 UTC
רוח 6קשר מכיוון מזרח
טמפרטורת 31 צלסיוס
לחות 71%
לחץ 1009 hPa
ראות: 16.1קילומטר
עננים בינוניים בגובה 2100רגל
עננים בינוניים בגובה 13000רגל
עננים בינוניים בגובה 30000רגל

METAR: PTSA 122350Z 09006KT 10SM BKN021 BKN130 BKN300 31/25 A2980

זמן: 11:40 (00:40 UTC)

תחזית

הדו"ח נערך לפני 1 שעות ו 8דקות, בשעה 23:32 UTC
תחזית בתוקף מ 13 ב 00 UTC עד 13 ב 24 UTC
רוח 8קשר מכיוון דרום-מזרח
ראות: 10קילומטר
עננים פזורים בגובה 2000רגל
עננים בינוניים בגובה 12000רגל
ממטרים במרחב
זמנית מ -
13 ב 00 UTC עד 13 ב 03 UTC
עננים בינוניים בגובה 2000רגל
מ 13 ב 0600UTC
רוח 17קשר מכיוון מזרח/דרום-מזרח
ראות: 8.0קילומטר
עננים בינוניים בגובה 1400רגל
מעונן בגובה 3000רגל
ממטרי גשם,

TAF: PTSA 122332Z 1300/1324 13008KT P6SM VCSH SCT020 BKN120 TEMPO 1300/1303 BKN020 FM130600 11017KT 5SM SHRA BKN014 OVC030

תצפיות ותחזיות מזג אוויר לגבי יותר מ- 4,000 שדות תעופה ברחבי העולם. דוחות METAR ו- TAF.

התחנות הזמינות מסומנות בנקודות צהובות ואדומות על גבי המפה.

העבר את העכבר לנקודה הצבעונית על מנת לראות את שם התחנה.

לאחר מכן, לחץ כדי לראות את תוכן ואת תחזיות מזג האוויר.

כדי לשנות את המפה: לחץ על הכפתורים הירוקים עם הפלוס השחור כדי להתקרב; על הכפתור הירוק עם המקף כדי להתרחק; או בחיצים הירוקים למפות סמוכות.


METAR-TAF: